Maasdam — PFRO — position and weather

sailwx.info

Track history (hours):
 
Tides and Currents Weather Stations Pressure Air Temp Water Temp Dewpoint Dewpoint Depression Visibility Wind Speed Wind Dir Waves Ship Positions

Maasdam

Operator: Holland America Line

Last reported at 2019-Jul-18 18:00 UTC. Time now 2019-Jul-20 00:51 UTC.
Position N 55°00' W 157°18'.

Type: Passenger vessel. MMSI: 244958000.

Wind from 300 at 10 knots

Barometer 1017.4 mb
Air temperature 15.0 ° C
Visibility: greater than 10.8 NM
Dewpoint 13.3 ° C
Water temperature 13.0 ° C

Date/timePositionNaut miles runAvg speedWind from/ knotsBaromVisibWave heightAir tempDewpointWater temp
2019-Jul-18 18:00N 55°00' W 157°18'1515.0 300 / 101017.410.8 15.013.313.0
2019-Jul-18 17:00N 55°06' W 156°54'382 9.3 290 / 101017.410.8 15.013.313.0
2019-Jul-17 00:00N 57°24' W 146°12'1616.2 270 / 111003.710.8 14.010.513.0
2019-Jul-16 23:00N 57°24' W 145°42'8116.2 260 / 101003.210.8 14.010.514.0
2019-Jul-16 18:00N 57°18' W 143°12'1717.3 230 / 91005.310.8 15.0 9.715.0
2019-Jul-16 17:00N 57°12' W 142°42'403 7.9 260 / 71005.710.8 14.012.313.0
2019-Jul-14 13:52N 55°10' W 131°11'1217.5
2019-Jul-14 13:11N 54°58' W 131°07'317.6
2019-Jul-14 13:00N 54°55' W 131°07'917.0
2019-Jul-14 12:29N 54°46' W 131°10'917.0
2019-Jul-14 11:59N 54°38' W 131°16'917.9
2019-Jul-14 11:30N 54°30' W 131°14'1020.7
2019-Jul-14 11:00N 54°21' W 131°05'1019.7
2019-Jul-14 10:30N 54°11' W 131°02'1019.6
2019-Jul-14 10:00N 54°01' W 130°58'1019.1
2019-Jul-14 09:30N 53°52' W 130°56'1019.0
2019-Jul-14 09:01N 53°43' W 130°52'918.7
2019-Jul-14 08:30N 53°34' W 130°47'1019.0
2019-Jul-14 08:00N 53°25' W 130°42'1118.7
2019-Jul-14 07:27N 53°15' W 130°35'919.2
2019-Jul-14 06:58N 53°08' W 130°26'1019.0
2019-Jul-14 06:26N 52°59' W 130°17'2219.4
2019-Jul-14 05:19N 52°41' W 129°57'1119.6
2019-Jul-14 04:46N 52°32' W 129°47'519.7
2019-Jul-14 04:30N 52°28' W 129°42'1019.8
2019-Jul-14 04:01N 52°20' W 129°33'1019.5
2019-Jul-14 03:30N 52°12' W 129°24'918.8
2019-Jul-14 03:00N 52°04' W 129°15'1019.2
2019-Jul-14 02:30N 51°56' W 129°06'1019.3
2019-Jul-14 02:00N 51°48' W 128°58'1019.3
2019-Jul-14 01:30N 51°40' W 128°49'1019.3
2019-Jul-14 01:00N 51°32' W 128°40'919.0
2019-Jul-14 00:30N 51°24' W 128°32'918.8
2019-Jul-14 00:00N 51°17' W 128°23'1019.2
2019-Jul-13 23:30N 51°09' W 128°15'1019.2
2019-Jul-13 23:00N 51°04' W 128°01'918.5
2019-Jul-13 22:30N 51°00' W 127°48'815.2
2019-Jul-13 22:00N 50°55' W 127°39'9559.1
2019-Jul-13 22:00N 50°48' W 127°30'3 6.3 290 / 161016.4 16.012.712.0
2019-Jul-13 21:27N 50°49' W 127°25'1431.1
2019-Jul-13 21:00N 50°42' W 127°06'5415.5 290 / 101016.310.8 16.012.712.0
2019-Jul-13 17:30N 50°23' W 125°47'1318.1
2019-Jul-13 16:48N 50°20' W 125°27'411.9
2019-Jul-13 16:30N 50°17' W 125°25'816.1
2019-Jul-13 16:01N 50°10' W 125°21'510.7
2019-Jul-13 15:30N 50°05' W 125°16'612.0
2019-Jul-13 15:00N 49°60' W 125°12'713.4
2019-Jul-13 14:30N 49°55' W 125°05'714.4
2019-Jul-13 14:00N 49°50' W 124°57'713.8
2019-Jul-13 13:31N 49°45' W 124°50'714.5
2019-Jul-13 13:00N 49°40' W 124°42'714.2
2019-Jul-13 12:30N 49°34' W 124°35'714.2
2019-Jul-13 12:00N 49°29' W 124°28'714.2
2019-Jul-13 11:31N 49°25' W 124°18'714.6
2019-Jul-13 11:00N 49°22' W 124°08'815.1
2019-Jul-13 10:30N 49°19' W 123°58'714.8
2019-Jul-13 10:01N 49°15' W 123°48'714.0
2019-Jul-13 09:30N 49°11' W 123°39'714.6
2019-Jul-13 09:00N 49°08' W 123°30'815.7
2019-Jul-13 08:30N 49°03' W 123°20'816.0
2019-Jul-13 08:00N 48°58' W 123°11'815.6
2019-Jul-13 07:30N 48°52' W 123°03'612.2
2019-Jul-13 07:00N 48°46' W 123°03'714.0
2019-Jul-13 06:30N 48°42' W 123°13'612.2
2019-Jul-13 06:00N 48°36' W 123°13'713.9
2019-Jul-13 05:30N 48°30' W 123°11'612.3
2019-Jul-13 05:01N 48°24' W 123°13'713.4
2019-Jul-13 04:30N 48°22' W 123°23'510.9
2019-Jul-13 04:00N 48°17' W 123°26'612.7
2019-Jul-13 03:30N 48°11' W 123°24'5 9.3
2019-Jul-13 03:00N 48°10' W 123°17'918.1
2019-Jul-13 02:30N 48°13' W 123°04'1718.8
2019-Jul-13 01:35N 48°07' W 122°40'220.5
2019-Jul-13 01:30N 48°05' W 122°39'1019.4
2019-Jul-13 01:00N 47°56' W 122°32'918.6
2019-Jul-13 00:30N 47°48' W 122°27'918.6
2019-Jul-13 00:00N 47°39' W 122°27'4 8.3
2019-Jul-12 23:30N 47°37' W 122°21'0 0.0
2019-Jul-12 23:00N 47°37' W 122°21'0 0.0
2019-Jul-12 22:24N 47°37' W 122°21'0 0.0
2019-Jul-12 21:54N 47°37' W 122°21'0 0.0
2019-Jul-12 21:30N 47°37' W 122°21'0 0.0
2019-Jul-12 21:00N 47°37' W 122°21'0 0.0
2019-Jul-12 20:30N 47°37' W 122°21'0 0.0
2019-Jul-12 19:48N 47°37' W 122°21'0 0.0
2019-Jul-12 19:30N 47°37' W 122°21'0 0.0
2019-Jul-12 19:00N 47°37' W 122°21'0 0.0
2019-Jul-12 18:30N 47°37' W 122°21'0 0.0
2019-Jul-12 17:54N 47°37' W 122°21'0 0.0
2019-Jul-12 17:30N 47°37' W 122°21'0 0.0
2019-Jul-12 16:54N 47°37' W 122°21'0 0.0
2019-Jul-12 16:24N 47°37' W 122°21'0 0.0
2019-Jul-12 16:00N 47°37' W 122°21'0 0.0
2019-Jul-12 15:30N 47°37' W 122°21'0 0.0
2019-Jul-12 15:00N 47°37' W 122°21'0 0.0
2019-Jul-12 14:30N 47°37' W 122°21'0 0.0
2019-Jul-12 13:36N 47°37' W 122°21'0 0.0
2019-Jul-12 13:30N 47°37' W 122°21'1 2.4
2019-Jul-12 13:00N 47°37' W 122°23'5 9.2
2019-Jul-12 12:30N 47°39' W 122°28'5 9.9
2019-Jul-12 12:00N 47°44' W 122°27'510.0
2019-Jul-12 11:30N 47°49' W 122°28'510.4
2019-Jul-12 11:00N 47°54' W 122°30'510.6
2019-Jul-12 10:29N 47°58' W 122°36'712.0
2019-Jul-12 09:53N 48°05' W 122°40'511.5
2019-Jul-12 09:27N 48°09' W 122°44'612.9
2019-Jul-12 09:00N 48°11' W 122°52'713.0
2019-Jul-12 08:29N 48°12' W 123°02'812.9
2019-Jul-12 07:54N 48°11' W 123°13'512.6
2019-Jul-12 07:29N 48°10' W 123°21'613.0
2019-Jul-12 06:59N 48°13' W 123°29'715.6
2019-Jul-12 06:31N 48°20' W 123°26'5 9.6
2019-Jul-12 06:00N 48°25' W 123°24'0 0.6
2019-Jul-12 05:28N 48°25' W 123°23'0 0.0
2019-Jul-12 04:58N 48°25' W 123°23'0 0.0
2019-Jul-12 04:28N 48°25' W 123°23'0 0.0
2019-Jul-12 03:58N 48°25' W 123°23'0 0.0
2019-Jul-12 03:28N 48°25' W 123°23'0 0.0
2019-Jul-12 02:58N 48°25' W 123°23'0 0.0
2019-Jul-12 02:28N 48°25' W 123°23'0 0.0
2019-Jul-12 01:28N 48°25' W 123°23'0 0.0
2019-Jul-12 00:58N 48°25' W 123°23'0 0.0
2019-Jul-12 00:28N 48°25' W 123°23'0 0.0
2019-Jul-11 23:58N 48°25' W 123°23'0 0.0
2019-Jul-11 23:28N 48°25' W 123°23'0 0.0
2019-Jul-11 22:58N 48°25' W 123°23'0 0.0
2019-Jul-11 22:28N 48°25' W 123°23'0 0.0
2019-Jul-11 21:58N 48°25' W 123°23'0 0.0
2019-Jul-11 21:28N 48°25' W 123°23'0 0.0
2019-Jul-11 20:58N 48°25' W 123°23'0 0.1
2019-Jul-11 20:30N 48°25' W 123°23'3 6.8
2019-Jul-11 20:00N 48°22' W 123°23'612.1
2019-Jul-11 19:30N 48°16' W 123°27'916.7
2019-Jul-11 18:58N 48°14' W 123°40'918.4
2019-Jul-11 18:29N 48°13' W 123°53'918.1
2019-Jul-11 18:00N 48°16' W 124°05'918.5
2019-Jul-11 17:30N 48°20' W 124°18'918.0
2019-Jul-11 17:00N 48°24' W 124°30'918.6
2019-Jul-11 16:30N 48°28' W 124°43'1019.0
2019-Jul-11 15:59N 48°28' W 124°58'918.1
2019-Jul-11 15:30N 48°21' W 125°04'1019.0
2019-Jul-11 15:00N 48°12' W 125°10'919.1
2019-Jul-11 14:30N 48°03' W 125°14'918.6
2019-Jul-11 14:00N 47°54' W 125°18'1818.4
2019-Jul-11 13:00N 47°35' W 125°18'917.9
2019-Jul-11 12:30N 47°26' W 125°18'918.7
2019-Jul-11 12:01N 47°17' W 125°17'918.7
2019-Jul-11 11:31N 47°08' W 125°17'918.5
2019-Jul-11 11:00N 46°59' W 125°17'918.6
2019-Jul-11 10:30N 46°49' W 125°17'918.8
2019-Jul-11 10:00N 46°40' W 125°16'918.4
2019-Jul-11 09:30N 46°31' W 125°16'918.5
2019-Jul-11 09:00N 46°21' W 125°15'918.5
2019-Jul-11 08:30N 46°12' W 125°15'918.3
2019-Jul-11 08:00N 46°03' W 125°14'918.5
2019-Jul-11 07:30N 45°54' W 125°14'1018.6
2019-Jul-11 06:59N 45°44' W 125°14'918.6
2019-Jul-11 06:30N 45°35' W 125°14'918.6
2019-Jul-11 06:00N 45°26' W 125°13'918.8
2019-Jul-11 05:30N 45°17' W 125°13'1018.9
2019-Jul-11 04:58N 45°06' W 125°12'1018.7
2019-Jul-11 04:25N 44°56' W 125°12'918.5
2019-Jul-11 03:56N 44°47' W 125°12'1218.5
2019-Jul-11 03:15N 44°35' W 125°11'818.7
2019-Jul-11 02:51N 44°27' W 125°11'9319.2
2019-Jul-10 22:00N 42°54' W 125°06'12020.0 180 / 151019.310.8 18.016.416.0
2019-Jul-10 16:00N 40°54' W 125°00'12917.0 180 / 121018.710.8 18.411.716.0
2019-Jul-10 08:26N 38°54' W 124°01'918.6
2019-Jul-10 07:58N 38°47' W 123°55'818.2
2019-Jul-10 07:30N 38°40' W 123°49'917.8
2019-Jul-10 07:00N 38°32' W 123°42'917.8
2019-Jul-10 06:30N 38°25' W 123°36'917.3
2019-Jul-10 06:00N 38°18' W 123°29'714.7
2019-Jul-10 05:30N 38°12' W 123°23'510.9
2019-Jul-10 05:00N 38°08' W 123°19'510.1
2019-Jul-10 04:30N 38°04' W 123°15'510.0
2019-Jul-10 04:00N 38°01' W 123°11'510.0
2019-Jul-10 03:30N 37°57' W 123°06'510.0
2019-Jul-10 03:00N 37°55' W 123°00'510.1
2019-Jul-10 02:30N 37°52' W 122°55'510.1
2019-Jul-10 02:00N 37°50' W 122°49'611.7
2019-Jul-10 01:30N 37°47' W 122°43'510.8
2019-Jul-10 01:00N 37°47' W 122°36'713.1
2019-Jul-10 00:30N 37°49' W 122°28'4 7.1
2019-Jul-10 00:00N 37°48' W 122°24'0 0.0
2019-Jul-09 23:28N 37°48' W 122°24'0 0.0
2019-Jul-09 22:58N 37°48' W 122°24'0 0.0
2019-Jul-09 22:28N 37°48' W 122°24'0 0.0
2019-Jul-09 21:58N 37°48' W 122°24'0 0.0
2019-Jul-09 21:28N 37°48' W 122°24'0 0.0
2019-Jul-09 20:58N 37°48' W 122°24'0 0.0
2019-Jul-09 20:28N 37°48' W 122°24'0 0.0
2019-Jul-09 19:58N 37°48' W 122°24'0 0.0
2019-Jul-09 19:28N 37°48' W 122°24'0 0.0
2019-Jul-09 18:58N 37°48' W 122°24'0 0.0
2019-Jul-09 18:28N 37°48' W 122°24'0 0.0
2019-Jul-09 17:58N 37°48' W 122°24'0 0.0
2019-Jul-09 17:28N 37°48' W 122°24'0 0.0
2019-Jul-09 16:58N 37°48' W 122°24'0 0.0
2019-Jul-09 16:28N 37°48' W 122°24'0 0.0
2019-Jul-09 15:58N 37°48' W 122°24'0 0.0
2019-Jul-09 15:28N 37°48' W 122°24'0 0.0
2019-Jul-09 14:58N 37°48' W 122°24'0 0.0
2019-Jul-09 14:28N 37°48' W 122°24'0 0.0
2019-Jul-09 13:58N 37°48' W 122°24'0 0.2
2019-Jul-09 13:30N 37°48' W 122°24'3 6.8
2019-Jul-09 13:00N 37°49' W 122°28'917.3
2019-Jul-09 12:30N 37°46' W 122°38'510.1
2019-Jul-09 12:00N 37°46' W 122°45'5 9.8
2019-Jul-09 11:30N 37°48' W 122°50'5 9.9
2019-Jul-09 11:00N 37°51' W 122°56'510.0
2019-Jul-09 10:30N 37°53' W 123°01'5 9.9
2019-Jul-09 10:00N 37°55' W 123°07'5 9.8
2019-Jul-09 09:30N 37°58' W 123°12'5 9.9
2019-Jul-09 09:00N 38°02' W 123°16'5 9.9
2019-Jul-09 08:30N 38°06' W 123°20'611.4
2019-Jul-09 08:00N 38°10' W 123°25'815.1
2019-Jul-09 07:30N 38°16' W 123°31'815.4
2019-Jul-09 07:00N 38°23' W 123°35'815.5
2019-Jul-09 06:30N 38°29' W 123°41'815.8
2019-Jul-09 06:00N 38°36' W 123°47'815.3
2019-Jul-09 05:30N 38°42' W 123°53'1015.5
2019-Jul-09 04:53N 38°50' W 123°60'615.7
2019-Jul-09 04:28N 38°55' W 124°04'9317.0
2019-Jul-08 23:00N 40°18' W 125°00'1818.0 340 / 111017.710.8 20.0 6.714.0
2019-Jul-08 22:00N 40°36' W 125°00'   320 / 101017.410.8 19.8 6.114.0
Track history (hours):
 
Tides and Currents Weather Stations Pressure Air Temp Water Temp Dewpoint Dewpoint Depression Visibility Wind Speed Wind Dir Waves Ship Positions

Maasdam

Operator: Holland America Line

Last reported at 2019-Jul-18 18:00 UTC. Time now 2019-Jul-20 00:51 UTC.
Position N 55°00' W 157°18'.

Type: Passenger vessel. MMSI: 244958000.

Wind from 300 at 10 knots

Barometer 1017.4 mb
Air temperature 15.0 ° C
Visibility: greater than 10.8 NM
Dewpoint 13.3 ° C
Water temperature 13.0 ° C

Date/timePositionNaut miles runAvg speedWind from/ knotsBaromVisibWave heightAir tempDewpointWater temp
2019-Jul-18 18:00N 55°00' W 157°18'1515.0 300 / 101017.410.8 15.013.313.0
2019-Jul-18 17:00N 55°06' W 156°54'382 9.3 290 / 101017.410.8 15.013.313.0
2019-Jul-17 00:00N 57°24' W 146°12'1616.2 270 / 111003.710.8 14.010.513.0
2019-Jul-16 23:00N 57°24' W 145°42'8116.2 260 / 101003.210.8 14.010.514.0
2019-Jul-16 18:00N 57°18' W 143°12'1717.3 230 / 91005.310.8 15.0 9.715.0
2019-Jul-16 17:00N 57°12' W 142°42'403 7.9 260 / 71005.710.8 14.012.313.0
2019-Jul-14 13:52N 55°10' W 131°11'1217.5
2019-Jul-14 13:11N 54°58' W 131°07'317.6
2019-Jul-14 13:00N 54°55' W 131°07'917.0
2019-Jul-14 12:29N 54°46' W 131°10'917.0
2019-Jul-14 11:59N 54°38' W 131°16'917.9
2019-Jul-14 11:30N 54°30' W 131°14'1020.7
2019-Jul-14 11:00N 54°21' W 131°05'1019.7
2019-Jul-14 10:30N 54°11' W 131°02'1019.6
2019-Jul-14 10:00N 54°01' W 130°58'1019.1
2019-Jul-14 09:30N 53°52' W 130°56'1019.0
2019-Jul-14 09:01N 53°43' W 130°52'918.7
2019-Jul-14 08:30N 53°34' W 130°47'1019.0
2019-Jul-14 08:00N 53°25' W 130°42'1118.7
2019-Jul-14 07:27N 53°15' W 130°35'919.2
2019-Jul-14 06:58N 53°08' W 130°26'1019.0
2019-Jul-14 06:26N 52°59' W 130°17'2219.4
2019-Jul-14 05:19N 52°41' W 129°57'1119.6
2019-Jul-14 04:46N 52°32' W 129°47'519.7
2019-Jul-14 04:30N 52°28' W 129°42'1019.8
2019-Jul-14 04:01N 52°20' W 129°33'1019.5
2019-Jul-14 03:30N 52°12' W 129°24'918.8
2019-Jul-14 03:00N 52°04' W 129°15'1019.2
2019-Jul-14 02:30N 51°56' W 129°06'1019.3
2019-Jul-14 02:00N 51°48' W 128°58'1019.3
2019-Jul-14 01:30N 51°40' W 128°49'1019.3
2019-Jul-14 01:00N 51°32' W 128°40'919.0
2019-Jul-14 00:30N 51°24' W 128°32'918.8
2019-Jul-14 00:00N 51°17' W 128°23'1019.2
2019-Jul-13 23:30N 51°09' W 128°15'1019.2
2019-Jul-13 23:00N 51°04' W 128°01'918.5
2019-Jul-13 22:30N 51°00' W 127°48'815.2
2019-Jul-13 22:00N 50°55' W 127°39'9559.1
2019-Jul-13 22:00N 50°48' W 127°30'3 6.3 290 / 161016.4 16.012.712.0
2019-Jul-13 21:27N 50°49' W 127°25'1431.1
2019-Jul-13 21:00N 50°42' W 127°06'5415.5 290 / 101016.310.8 16.012.712.0
2019-Jul-13 17:30N 50°23' W 125°47'1318.1
2019-Jul-13 16:48N 50°20' W 125°27'411.9
2019-Jul-13 16:30N 50°17' W 125°25'816.1
2019-Jul-13 16:01N 50°10' W 125°21'510.7
2019-Jul-13 15:30N 50°05' W 125°16'612.0
2019-Jul-13 15:00N 49°60' W 125°12'713.4
2019-Jul-13 14:30N 49°55' W 125°05'714.4
2019-Jul-13 14:00N 49°50' W 124°57'713.8
2019-Jul-13 13:31N 49°45' W 124°50'714.5
2019-Jul-13 13:00N 49°40' W 124°42'714.2
2019-Jul-13 12:30N 49°34' W 124°35'714.2
2019-Jul-13 12:00N 49°29' W 124°28'714.2
2019-Jul-13 11:31N 49°25' W 124°18'714.6
2019-Jul-13 11:00N 49°22' W 124°08'815.1
2019-Jul-13 10:30N 49°19' W 123°58'714.8
2019-Jul-13 10:01N 49°15' W 123°48'714.0
2019-Jul-13 09:30N 49°11' W 123°39'714.6
2019-Jul-13 09:00N 49°08' W 123°30'815.7
2019-Jul-13 08:30N 49°03' W 123°20'816.0
2019-Jul-13 08:00N 48°58' W 123°11'815.6
2019-Jul-13 07:30N 48°52' W 123°03'612.2
2019-Jul-13 07:00N 48°46' W 123°03'714.0
2019-Jul-13 06:30N 48°42' W 123°13'612.2
2019-Jul-13 06:00N 48°36' W 123°13'713.9
2019-Jul-13 05:30N 48°30' W 123°11'612.3
2019-Jul-13 05:01N 48°24' W 123°13'713.4
2019-Jul-13 04:30N 48°22' W 123°23'510.9
2019-Jul-13 04:00N 48°17' W 123°26'612.7
2019-Jul-13 03:30N 48°11' W 123°24'5 9.3
2019-Jul-13 03:00N 48°10' W 123°17'918.1
2019-Jul-13 02:30N 48°13' W 123°04'1718.8
2019-Jul-13 01:35N 48°07' W 122°40'220.5
2019-Jul-13 01:30N 48°05' W 122°39'1019.4
2019-Jul-13 01:00N 47°56' W 122°32'918.6
2019-Jul-13 00:30N 47°48' W 122°27'918.6
2019-Jul-13 00:00N 47°39' W 122°27'4 8.3
2019-Jul-12 23:30N 47°37' W 122°21'0 0.0
2019-Jul-12 23:00N 47°37' W 122°21'0 0.0
2019-Jul-12 22:24N 47°37' W 122°21'0 0.0
2019-Jul-12 21:54N 47°37' W 122°21'0 0.0
2019-Jul-12 21:30N 47°37' W 122°21'0 0.0
2019-Jul-12 21:00N 47°37' W 122°21'0 0.0
2019-Jul-12 20:30N 47°37' W 122°21'0 0.0
2019-Jul-12 19:48N 47°37' W 122°21'0 0.0
2019-Jul-12 19:30N 47°37' W 122°21'0 0.0
2019-Jul-12 19:00N 47°37' W 122°21'0 0.0
2019-Jul-12 18:30N 47°37' W 122°21'0 0.0
2019-Jul-12 17:54N 47°37' W 122°21'0 0.0
2019-Jul-12 17:30N 47°37' W 122°21'0 0.0
2019-Jul-12 16:54N 47°37' W 122°21'0 0.0
2019-Jul-12 16:24N 47°37' W 122°21'0 0.0
2019-Jul-12 16:00N 47°37' W 122°21'0 0.0
2019-Jul-12 15:30N 47°37' W 122°21'0 0.0
2019-Jul-12 15:00N 47°37' W 122°21'0 0.0
2019-Jul-12 14:30N 47°37' W 122°21'0 0.0
2019-Jul-12 13:36N 47°37' W 122°21'0 0.0
2019-Jul-12 13:30N 47°37' W 122°21'1 2.4
2019-Jul-12 13:00N 47°37' W 122°23'5 9.2
2019-Jul-12 12:30N 47°39' W 122°28'5 9.9
2019-Jul-12 12:00N 47°44' W 122°27'510.0
2019-Jul-12 11:30N 47°49' W 122°28'510.4
2019-Jul-12 11:00N 47°54' W 122°30'510.6
2019-Jul-12 10:29N 47°58' W 122°36'712.0
2019-Jul-12 09:53N 48°05' W 122°40'511.5
2019-Jul-12 09:27N 48°09' W 122°44'612.9
2019-Jul-12 09:00N 48°11' W 122°52'713.0
2019-Jul-12 08:29N 48°12' W 123°02'812.9
2019-Jul-12 07:54N 48°11' W 123°13'512.6
2019-Jul-12 07:29N 48°10' W 123°21'613.0
2019-Jul-12 06:59N 48°13' W 123°29'715.6
2019-Jul-12 06:31N 48°20' W 123°26'5 9.6
2019-Jul-12 06:00N 48°25' W 123°24'0 0.6
2019-Jul-12 05:28N 48°25' W 123°23'0 0.0
2019-Jul-12 04:58N 48°25' W 123°23'0 0.0
2019-Jul-12 04:28N 48°25' W 123°23'0 0.0
2019-Jul-12 03:58N 48°25' W 123°23'0 0.0
2019-Jul-12 03:28N 48°25' W 123°23'0 0.0
2019-Jul-12 02:58N 48°25' W 123°23'0 0.0
2019-Jul-12 02:28N 48°25' W 123°23'0 0.0
2019-Jul-12 01:28N 48°25' W 123°23'0 0.0
2019-Jul-12 00:58N 48°25' W 123°23'0 0.0
2019-Jul-12 00:28N 48°25' W 123°23'0 0.0
2019-Jul-11 23:58N 48°25' W 123°23'0 0.0
2019-Jul-11 23:28N 48°25' W 123°23'0 0.0
2019-Jul-11 22:58N 48°25' W 123°23'0 0.0
2019-Jul-11 22:28N 48°25' W 123°23'0 0.0
2019-Jul-11 21:58N 48°25' W 123°23'0 0.0
2019-Jul-11 21:28N 48°25' W 123°23'0 0.0
2019-Jul-11 20:58N 48°25' W 123°23'0 0.1
2019-Jul-11 20:30N 48°25' W 123°23'3 6.8
2019-Jul-11 20:00N 48°22' W 123°23'612.1
2019-Jul-11 19:30N 48°16' W 123°27'916.7
2019-Jul-11 18:58N 48°14' W 123°40'918.4
2019-Jul-11 18:29N 48°13' W 123°53'918.1
2019-Jul-11 18:00N 48°16' W 124°05'918.5
2019-Jul-11 17:30N 48°20' W 124°18'918.0
2019-Jul-11 17:00N 48°24' W 124°30'918.6
2019-Jul-11 16:30N 48°28' W 124°43'1019.0
2019-Jul-11 15:59N 48°28' W 124°58'918.1
2019-Jul-11 15:30N 48°21' W 125°04'1019.0
2019-Jul-11 15:00N 48°12' W 125°10'919.1
2019-Jul-11 14:30N 48°03' W 125°14'918.6
2019-Jul-11 14:00N 47°54' W 125°18'1818.4
2019-Jul-11 13:00N 47°35' W 125°18'917.9
2019-Jul-11 12:30N 47°26' W 125°18'918.7
2019-Jul-11 12:01N 47°17' W 125°17'918.7
2019-Jul-11 11:31N 47°08' W 125°17'918.5
2019-Jul-11 11:00N 46°59' W 125°17'918.6
2019-Jul-11 10:30N 46°49' W 125°17'918.8
2019-Jul-11 10:00N 46°40' W 125°16'918.4
2019-Jul-11 09:30N 46°31' W 125°16'918.5
2019-Jul-11 09:00N 46°21' W 125°15'918.5
2019-Jul-11 08:30N 46°12' W 125°15'918.3
2019-Jul-11 08:00N 46°03' W 125°14'918.5
2019-Jul-11 07:30N 45°54' W 125°14'1018.6
2019-Jul-11 06:59N 45°44' W 125°14'918.6
2019-Jul-11 06:30N 45°35' W 125°14'918.6
2019-Jul-11 06:00N 45°26' W 125°13'918.8
2019-Jul-11 05:30N 45°17' W 125°13'1018.9
2019-Jul-11 04:58N 45°06' W 125°12'1018.7
2019-Jul-11 04:25N 44°56' W 125°12'918.5
2019-Jul-11 03:56N 44°47' W 125°12'1218.5
2019-Jul-11 03:15N 44°35' W 125°11'818.7
2019-Jul-11 02:51N 44°27' W 125°11'9319.2
2019-Jul-10 22:00N 42°54' W 125°06'12020.0 180 / 151019.310.8 18.016.416.0
2019-Jul-10 16:00N 40°54' W 125°00'12917.0 180 / 121018.710.8 18.411.716.0
2019-Jul-10 08:26N 38°54' W 124°01'918.6
2019-Jul-10 07:58N 38°47' W 123°55'818.2
2019-Jul-10 07:30N 38°40' W 123°49'917.8
2019-Jul-10 07:00N 38°32' W 123°42'917.8
2019-Jul-10 06:30N 38°25' W 123°36'917.3
2019-Jul-10 06:00N 38°18' W 123°29'714.7
2019-Jul-10 05:30N 38°12' W 123°23'510.9
2019-Jul-10 05:00N 38°08' W 123°19'510.1
2019-Jul-10 04:30N 38°04' W 123°15'510.0
2019-Jul-10 04:00N 38°01' W 123°11'510.0
2019-Jul-10 03:30N 37°57' W 123°06'510.0
2019-Jul-10 03:00N 37°55' W 123°00'510.1
2019-Jul-10 02:30N 37°52' W 122°55'510.1
2019-Jul-10 02:00N 37°50' W 122°49'611.7
2019-Jul-10 01:30N 37°47' W 122°43'510.8
2019-Jul-10 01:00N 37°47' W 122°36'713.1
2019-Jul-10 00:30N 37°49' W 122°28'4 7.1
2019-Jul-10 00:00N 37°48' W 122°24'0 0.0
2019-Jul-09 23:28N 37°48' W 122°24'0 0.0
2019-Jul-09 22:58N 37°48' W 122°24'0 0.0
2019-Jul-09 22:28N 37°48' W 122°24'0 0.0
2019-Jul-09 21:58N 37°48' W 122°24'0 0.0
2019-Jul-09 21:28N 37°48' W 122°24'0 0.0
2019-Jul-09 20:58N 37°48' W 122°24'0 0.0
2019-Jul-09 20:28N 37°48' W 122°24'0 0.0
2019-Jul-09 19:58N 37°48' W 122°24'0 0.0
2019-Jul-09 19:28N 37°48' W 122°24'0 0.0
2019-Jul-09 18:58N 37°48' W 122°24'0 0.0
2019-Jul-09 18:28N 37°48' W 122°24'0 0.0
2019-Jul-09 17:58N 37°48' W 122°24'0 0.0
2019-Jul-09 17:28N 37°48' W 122°24'0 0.0
2019-Jul-09 16:58N 37°48' W 122°24'0 0.0
2019-Jul-09 16:28N 37°48' W 122°24'0 0.0
2019-Jul-09 15:58N 37°48' W 122°24'0 0.0
2019-Jul-09 15:28N 37°48' W 122°24'0 0.0
2019-Jul-09 14:58N 37°48' W 122°24'0 0.0
2019-Jul-09 14:28N 37°48' W 122°24'0 0.0
2019-Jul-09 13:58N 37°48' W 122°24'0 0.2
2019-Jul-09 13:30N 37°48' W 122°24'3 6.8
2019-Jul-09 13:00N 37°49' W 122°28'917.3
2019-Jul-09 12:30N 37°46' W 122°38'510.1
2019-Jul-09 12:00N 37°46' W 122°45'5 9.8
2019-Jul-09 11:30N 37°48' W 122°50'5 9.9
2019-Jul-09 11:00N 37°51' W 122°56'510.0
2019-Jul-09 10:30N 37°53' W 123°01'5 9.9
2019-Jul-09 10:00N 37°55' W 123°07'5 9.8
2019-Jul-09 09:30N 37°58' W 123°12'5 9.9
2019-Jul-09 09:00N 38°02' W 123°16'5 9.9
2019-Jul-09 08:30N 38°06' W 123°20'611.4
2019-Jul-09 08:00N 38°10' W 123°25'815.1
2019-Jul-09 07:30N 38°16' W 123°31'815.4
2019-Jul-09 07:00N 38°23' W 123°35'815.5
2019-Jul-09 06:30N 38°29' W 123°41'815.8
2019-Jul-09 06:00N 38°36' W 123°47'815.3
2019-Jul-09 05:30N 38°42' W 123°53'1015.5
2019-Jul-09 04:53N 38°50' W 123°60'615.7
2019-Jul-09 04:28N 38°55' W 124°04'9317.0
2019-Jul-08 23:00N 40°18' W 125°00'1818.0 340 / 111017.710.8 20.0 6.714.0
2019-Jul-08 22:00N 40°36' W 125°00'   320 / 101017.410.8 19.8 6.114.0

Dump ship's entire track history